EGXC

RAF Coningsby Airport

Coningsby, United Kingdom
METAR EGXC 181350Z 25015KT 9999 FEW035 23/12 Q1017 BLU
Observed Flight Rules
Aug-18 @ 13:50 UTC (an hour ago) Visual Flight Rules
Wind Visibility Clouds
250° at 15 knots 10,000+ meters
  • Few at 3,500' AGL
Temperatures Readings
Current 23°C / 73°F
Dewpoint 12°C / 54°F
Humidity 50%
Altimeter 30.03" Hg
Pressure 1017 hPa
Elevation 7
METAR EGXC 181350Z 25015KT 9999 FEW035 23/12 Q1017 BLU
Observed Flight Rules
Aug-18 @ 13:50 UTC
(an hour ago)
VFR
Wind Visibility
250° at 15 knots 10,000+ meters
Clouds
  • Few at 3,500' AGL
Temperature Dewpoint
23°C / 73°F 12°C / 54°F
Humidity Altimeter Pressure
50% 30.03" Hg 1017 hPa